Time;durP1;ratioP1;P1;durP2;ratioP2;P2;SDS_P1;SDS_P2;PMS_P1;PMS_P2;Temp;Humidity;BMP_temperature;BMP_pressure;BME280_temperature;BME280_humidity;BME280_pressure;Samples;Min_cycle;Max_cycle;Signal;HPM_P1;HPM_P2
2022/07/04 00:00:22;;;;;;;;;;;;;;;17.84;64.24;100400.50;6128189;23;1228;-94
2022/07/04 00:02:48;;;;;;;;;;;;;;;17.83;64.19;100402.41;6127506;23;1316;-94
2022/07/04 00:05:14;;;;;;;;;;;;;;;17.84;64.26;100397.78;6127599;23;1214;-94
2022/07/04 00:07:41;;;;;;;;;;;;;;;17.83;64.13;100393.41;6127842;23;1386;-95
2022/07/04 00:10:07;;;;;;;;;;;;;;;17.81;64.29;100390.94;6127305;23;1241;-94
2022/07/04 00:12:34;;;;;;;;;;;;;;;17.81;64.14;100387.41;6127477;23;1170;-94
2022/07/04 00:15:00;;;;;;;;;;;;;;;17.80;64.01;100386.59;6127611;23;1408;-95
2022/07/04 00:17:27;;;;;;;;;;;;;;;17.80;64.03;100385.78;6128361;23;1257;-94
2022/07/04 00:19:53;;;;;;;;;;;;;;;17.79;64.07;100376.78;6127431;23;1129;-94
2022/07/04 00:22:19;;;;;;;;;;;;;;;17.77;63.94;100368.06;6127514;23;1122;-94
2022/07/04 00:24:46;;;;;;;;;;;;;;;17.77;64.00;100372.69;6127623;23;1355;-94
2022/07/04 00:27:12;;;;;;;;;;;;;;;17.75;64.20;100370.22;6128685;23;1431;-94
2022/07/04 00:29:39;;;;;;;;;;;;;;;17.76;64.02;100363.66;6127882;23;1186;-94
2022/07/04 00:32:05;;;;;;;;;;;;;;;17.75;64.17;100363.97;6127308;23;1234;-93
2022/07/04 00:34:31;;;;;;;;;;;;;;;17.74;64.17;100365.88;6127623;23;1247;-94
2022/07/04 00:36:58;;;;;;;;;;;;;;;17.72;63.97;100359.88;6127250;23;1254;-94
2022/07/04 00:39:24;;;;;;;;;;;;;;;17.73;64.02;100360.69;6127725;23;1901;-95
2022/07/04 00:41:52;;;;;;;;;;;;;;;17.71;63.99;100360.97;6127182;23;1593;-94
2022/07/04 00:44:19;;;;;;;;;;;;;;;17.70;nan;100360.13;6127181;23;1241;-94
2022/07/04 00:46:45;;;;;;;;;;;;;;;17.68;63.98;100356.06;6127443;23;1281;-94
2022/07/04 00:49:12;;;;;;;;;;;;;;;17.69;63.93;100346.81;6127597;23;1216;-94
2022/07/04 00:51:38;;;;;;;;;;;;;;;17.68;63.98;100346.00;6126578;23;1345;-94
2022/07/04 00:54:05;;;;;;;;;;;;;;;17.67;64.14;100335.34;6127620;23;1355;-95
2022/07/04 00:56:31;;;;;;;;;;;;;;;17.67;64.09;100343.53;6127274;23;1259;-94
2022/07/04 00:58:58;;;;;;;;;;;;;;;17.66;64.11;100339.16;6127789;23;1893;-94
2022/07/04 01:01:25;;;;;;;;;;;;;;;17.65;64.06;100340.28;6128451;23;1101;-95
2022/07/04 01:03:51;;;;;;;;;;;;;;;17.64;64.01;100353.03;6127437;23;1137;-94
2022/07/04 01:06:17;;;;;;;;;;;;;;;17.63;64.07;100345.97;6127242;23;1157;-95
2022/07/04 01:08:44;;;;;;;;;;;;;;;17.63;64.04;100342.44;6127845;23;1356;-94
2022/07/04 01:11:10;;;;;;;;;;;;;;;17.62;63.95;100335.38;6127759;23;1279;-94
2022/07/04 01:13:37;;;;;;;;;;;;;;;17.61;64.01;100334.53;6127209;23;1246;-94
2022/07/04 01:16:03;;;;;;;;;;;;;;;17.60;63.91;100327.47;6127407;23;1325;-94
2022/07/04 01:18:29;;;;;;;;;;;;;;;17.61;63.83;100325.56;6127884;23;2235;-94
2022/07/04 01:20:56;;;;;;;;;;;;;;;17.60;63.99;100324.75;6127202;23;1203;-94
2022/07/04 01:23:22;;;;;;;;;;;;;;;17.58;64.05;100312.47;6129100;23;1172;-94
2022/07/04 01:25:50;;;;;;;;;;;;;;;17.58;63.95;100318.75;6129074;23;1245;-93
2022/07/04 01:28:16;;;;;;;;;;;;;;;17.56;64.11;100310.03;6129020;23;1252;-95
2022/07/04 01:30:42;;;;;;;;;;;;;;;17.56;64.14;100312.75;6129412;23;1350;-94
2022/07/04 01:33:09;;;;;;;;;;;;;;;17.56;63.95;100311.94;6129283;23;1250;-94
2022/07/04 01:35:35;;;;;;;;;;;;;;;17.55;63.83;100311.13;6129614;23;1152;-93
2022/07/04 01:38:01;;;;;;;;;;;;;;;17.54;64.05;100314.94;6129015;23;1944;-94
2022/07/04 01:40:28;;;;;;;;;;;;;;;17.54;63.85;100316.84;6129052;23;1233;-94
2022/07/04 01:42:54;;;;;;;;;;;;;;;17.52;63.97;100313.56;6128779;23;1159;-94
2022/07/04 01:45:20;;;;;;;;;;;;;;;17.53;63.81;100315.19;6128713;23;1288;-94
2022/07/04 01:47:47;;;;;;;;;;;;;;;17.52;63.91;100308.13;6128943;23;1264;-94
2022/07/04 01:50:13;;;;;;;;;;;;;;;17.49;63.87;100310.28;6129072;23;1315;-94
2022/07/04 01:52:40;;;;;;;;;;;;;;;17.50;63.98;100313.84;6128823;23;1227;-94
2022/07/04 01:55:06;;;;;;;;;;;;;;;17.48;64.05;100307.84;6129121;23;1278;-94
2022/07/04 01:57:32;;;;;;;;;;;;;;;17.47;64.21;100292.59;6129267;23;1376;-94
2022/07/04 02:02:43;;;;;;;;;;;;;;;17.44;63.99;100291.25;6128865;23;1156;-94
2022/07/04 02:05:09;;;;;;;;;;;;;;;17.44;63.97;100290.41;6129080;23;1377;-94
2022/07/04 02:07:35;;;;;;;;;;;;;;;17.44;64.20;100291.25;6128556;23;1248;-93
2022/07/04 02:10:02;;;;;;;;;;;;;;;17.43;63.92;100291.50;6128951;23;1181;-94
2022/07/04 02:15:13;;;;;;;;;;;;;;;17.41;64.03;100296.41;6129233;23;1141;-94
2022/07/04 02:17:39;;;;;;;;;;;;;;;17.39;64.11;100296.69;6128498;23;1298;-94
2022/07/04 02:20:06;;;;;;;;;;;;;;;17.38;63.98;100292.34;6129969;23;1952;-94
2022/07/04 02:22:32;;;;;;;;;;;;;;;17.37;64.06;100293.41;6128905;23;1248;-93
2022/07/04 02:24:59;;;;;;;;;;;;;;;17.37;64.08;100290.69;6130021;23;1157;-94
2022/07/04 02:27:25;;;;;;;;;;;;;;;17.35;64.01;100292.03;6130101;23;1180;-94
2022/07/04 02:29:51;;;;;;;;;;;;;;;17.35;64.02;100295.56;6129004;23;1362;-94
2022/07/04 02:32:18;;;;;;;;;;;;;;;17.34;64.06;100293.94;6128761;23;1233;-95
2022/07/04 02:34:44;;;;;;;;;;;;;;;17.33;63.92;100286.06;6127898;23;1212;-95
2022/07/04 02:37:11;;;;;;;;;;;;;;;17.32;63.97;100278.97;6128224;23;1270;-94
2022/07/04 02:39:37;;;;;;;;;;;;;;;17.32;63.94;100278.97;6128402;23;2001;-94
2022/07/04 02:42:03;;;;;;;;;;;;;;;17.32;63.93;100278.97;6129427;23;1309;-95
2022/07/04 02:44:30;;;;;;;;;;;;;;;17.29;64.10;100280.34;6128355;23;1196;-94
2022/07/04 02:46:56;;;;;;;;;;;;;;;17.29;63.90;100276.78;6128362;23;1394;-94
2022/07/04 02:49:23;;;;;;;;;;;;;;;17.29;64.08;100287.69;6128378;23;1189;-94
2022/07/04 02:51:49;;;;;;;;;;;;;;;17.28;63.92;100288.78;6128239;23;1305;-93
2022/07/04 02:54:15;;;;;;;;;;;;;;;17.26;64.09;100272.72;6128734;23;1165;-94
2022/07/04 02:56:42;;;;;;;;;;;;;;;17.24;64.02;100270.28;6128255;23;1308;-94
2022/07/04 02:59:08;;;;;;;;;;;;;;;17.23;64.11;100267.81;6129464;23;1897;-94
2022/07/04 03:01:35;;;;;;;;;;;;;;;17.22;64.06;100269.72;6128192;23;1181;-94
2022/07/04 03:04:02;;;;;;;;;;;;;;;17.23;63.93;100278.69;6128148;23;1244;-94
2022/07/04 03:06:29;;;;;;;;;;;;;;;17.21;64.01;100272.72;6127957;23;1264;-94
2022/07/04 03:08:55;;;;;;;;;;;;;;;17.21;64.06;100273.53;6129746;23;857;-94
2022/07/04 03:11:21;;;;;;;;;;;;;;;17.19;64.11;100269.44;6128159;23;1324;-94
2022/07/04 03:13:48;;;;;;;;;;;;;;;17.19;64.02;100259.38;6129535;23;1128;-94
2022/07/04 03:16:14;;;;;;;;;;;;;;;17.18;nan;100260.47;6127982;23;1256;-94
2022/07/04 03:18:40;;;;;;;;;;;;;;;17.18;64.08;100254.22;6129311;23;1897;-94
2022/07/04 03:21:07;;;;;;;;;;;;;;;17.18;64.03;100256.94;6128127;23;1218;-94
2022/07/04 03:23:33;;;;;;;;;;;;;;;17.17;64.04;100258.81;6127920;23;1224;-94
2022/07/04 03:25:59;;;;;;;;;;;;;;;17.16;64.05;100254.47;6127821;23;1141;-94
2022/07/04 03:28:26;;;;;;;;;;;;;;;17.14;64.03;100248.47;6128341;23;1298;-94
2022/07/04 03:30:52;;;;;;;;;;;;;;;17.15;63.92;100252.03;6128115;23;1289;-94
2022/07/04 03:33:18;;;;;;;;;;;;;;;17.13;64.03;100248.75;6128555;23;1238;-94
2022/07/04 03:35:45;;;;;;;;;;;;;;;17.12;64.04;100253.41;6127897;23;1342;-94
2022/07/04 03:38:11;;;;;;;;;;;;;;;17.13;63.90;100251.50;6127868;23;1217;-94
2022/07/04 03:40:38;;;;;;;;;;;;;;;17.12;63.80;100247.97;6127330;23;1893;-94
2022/07/04 03:43:06;;;;;;;;;;;;;;;17.13;64.02;100248.75;6127192;23;1298;-94
2022/07/04 03:45:32;;;;;;;;;;;;;;;17.11;63.99;100243.56;6128520;23;1263;-94
2022/07/04 03:47:59;;;;;;;;;;;;;;;17.12;63.94;100247.13;6128300;23;1229;-94
2022/07/04 03:50:25;;;;;;;;;;;;;;;17.10;63.81;100241.97;6127498;23;1096;-95
2022/07/04 03:52:51;;;;;;;;;;;;;;;17.10;63.89;100241.97;6127877;23;1258;-94
2022/07/04 03:55:18;;;;;;;;;;;;;;;17.10;63.93;100241.16;6128219;23;1306;-94
2022/07/04 03:57:44;;;;;;;;;;;;;;;17.08;63.79;100238.69;6127780;23;1216;-93
2022/07/04 04:00:11;;;;;;;;;;;;;;;17.08;63.82;100238.69;6127715;23;1901;-95
2022/07/04 04:02:38;;;;;;;;;;;;;;;17.07;63.75;100236.25;6127314;23;1166;-94
2022/07/04 04:07:48;;;;;;;;;;;;;;;17.05;63.90;100228.34;6128306;23;1274;-95
2022/07/04 04:10:14;;;;;;;;;;;;;;;17.05;63.75;100232.97;6128007;23;1173;-94
2022/07/04 04:12:41;;;;;;;;;;;;;;;17.04;63.87;100229.44;6127820;23;1261;-94
2022/07/04 04:15:07;;;;;;;;;;;;;;;17.05;63.90;100222.09;6127956;23;1149;-94
2022/07/04 04:17:34;;;;;;;;;;;;;;;17.03;63.88;100225.91;6127535;23;1217;-94
2022/07/04 04:20:00;;;;;;;;;;;;;;;17.05;63.63;100219.38;6127652;23;1901;-94
2022/07/04 04:22:27;;;;;;;;;;;;;;;17.03;63.87;100219.66;6127835;23;1295;-94
2022/07/04 04:24:53;;;;;;;;;;;;;;;17.03;63.75;100220.47;6127223;23;1218;-93
2022/07/04 04:27:19;;;;;;;;;;;;;;;17.02;63.79;100212.56;6128628;23;1222;-94
2022/07/04 04:29:46;;;;;;;;;;;;;;;17.01;63.65;100200.06;6127766;23;1130;-95
2022/07/04 04:32:12;;;;;;;;;;;;;;;17.01;63.78;100200.06;6127431;23;1103;-94
2022/07/04 04:34:39;;;;;;;;;;;;;;;16.99;63.61;100202.22;6129049;23;843;-94
2022/07/04 04:37:05;;;;;;;;;;;;;;;16.99;63.84;100211.19;6127706;23;1177;-94
2022/07/04 04:39:31;;;;;;;;;;;;;;;17.00;63.76;100210.13;6127550;23;1952;-94
2022/07/04 04:41:58;;;;;;;;;;;;;;;17.00;63.70;100204.69;6127232;23;1134;-94
2022/07/04 04:44:24;;;;;;;;;;;;;;;17.00;63.64;100201.13;6127540;23;1293;-94
2022/07/04 04:46:51;;;;;;;;;;;;;;;16.99;63.57;100197.59;6128703;23;1164;-94
2022/07/04 04:49:18;;;;;;;;;;;;;;;16.98;63.69;100195.16;6127682;23;1362;-94
2022/07/04 04:51:44;;;;;;;;;;;;;;;16.98;63.62;100192.44;6127241;23;1150;-94
2022/07/04 04:54:10;;;;;;;;;;;;;;;16.98;63.55;100184.28;6127595;23;1323;-94
2022/07/04 04:56:37;;;;;;;;;;;;;;;16.97;63.68;100180.75;6127863;23;1179;-94
2022/07/04 04:59:03;;;;;;;;;;;;;;;16.96;63.64;100178.28;6129516;23;1905;-94
2022/07/04 05:01:29;;;;;;;;;;;;;;;16.95;63.68;100176.66;6129149;23;1323;-94
2022/07/04 05:03:56;;;;;;;;;;;;;;;16.96;63.50;100172.84;6129253;23;1263;-94
2022/07/04 05:06:22;;;;;;;;;;;;;;;16.95;63.62;100168.50;6129625;23;1260;-95
2022/07/04 05:08:49;;;;;;;;;;;;;;;16.93;63.42;100171.47;6130994;23;1240;-94
2022/07/04 05:11:15;;;;;;;;;;;;;;;16.94;63.63;100175.84;6129320;23;1491;-94
2022/07/04 05:13:42;;;;;;;;;;;;;;;16.92;63.50;100172.56;6129109;23;1120;-94
2022/07/04 05:16:08;;;;;;;;;;;;;;;16.91;63.60;100173.66;6129550;23;1209;-94
2022/07/04 05:18:34;;;;;;;;;;;;;;;16.93;63.63;100173.38;6129390;23;1136;-94
2022/07/04 05:21:01;;;;;;;;;;;;;;;16.92;63.58;100172.56;6129342;23;1905;-94
2022/07/04 05:23:27;;;;;;;;;;;;;;;16.92;63.54;100171.75;6129516;23;1138;-94
2022/07/04 05:25:53;;;;;;;;;;;;;;;16.90;63.58;100165.78;6128969;23;1255;-94
2022/07/04 05:28:20;;;;;;;;;;;;;;;16.89;63.65;100166.88;6129207;23;1193;-94
2022/07/04 05:30:46;;;;;;;;;;;;;;;16.89;63.59;100166.88;6129191;23;1226;-94
2022/07/04 05:33:13;;;;;;;;;;;;;;;16.88;63.51;100165.22;6129395;23;1189;-94
2022/07/04 05:35:39;;;;;;;;;;;;;;;16.87;63.61;100158.97;6129463;23;1283;-94
2022/07/04 05:38:05;;;;;;;;;;;;;;;16.87;63.45;100164.41;6128823;23;1109;-94
2022/07/04 05:40:32;;;;;;;;;;;;;;;16.89;63.49;100166.88;6130136;23;1904;-94
2022/07/04 05:42:58;;;;;;;;;;;;;;;16.88;63.52;100160.59;6128577;23;1157;-94
2022/07/04 05:45:25;;;;;;;;;;;;;;;16.87;63.64;100160.88;6129223;23;1289;-93
2022/07/04 05:47:51;;;;;;;;;;;;;;;16.87;63.50;100164.41;6128999;23;1254;-94
2022/07/04 05:50:17;;;;;;;;;;;;;;;16.85;63.63;100161.13;6129041;23;1157;-93
2022/07/04 05:52:44;;;;;;;;;;;;;;;16.85;63.60;100163.84;6130025;23;869;-94
2022/07/04 05:55:10;;;;;;;;;;;;;;;16.84;63.59;100161.41;6129250;23;1298;-94
2022/07/04 05:57:36;;;;;;;;;;;;;;;16.85;63.54;100163.03;6129558;23;1149;-94
2022/07/04 06:00:03;;;;;;;;;;;;;;;16.84;63.53;100159.50;6130136;23;1948;-93
2022/07/04 06:02:29;;;;;;;;;;;;;;;16.84;63.55;100162.22;6128922;23;1292;-94
2022/07/04 06:04:55;;;;;;;;;;;;;;;16.83;63.55;100154.34;6128936;23;1260;-94
2022/07/04 06:07:22;;;;;;;;;;;;;;;16.83;63.63;100151.63;6129917;23;1157;-94
2022/07/04 06:09:48;;;;;;;;;;;;;;;16.83;63.54;100157.06;6133004;23;1370;-94
2022/07/04 06:12:15;;;;;;;;;;;;;;;16.82;63.56;100152.69;6129766;23;1312;-94
2022/07/04 06:14:41;;;;;;;;;;;;;;;16.81;63.42;100149.16;6129023;23;1204;-94
2022/07/04 06:17:07;;;;;;;;;;;;;;;16.80;63.57;100148.34;6129297;23;1242;-94
2022/07/04 06:19:34;;;;;;;;;;;;;;;16.79;63.66;100146.72;6128968;23;1910;-94
2022/07/04 06:22:00;;;;;;;;;;;;;;;16.78;63.56;100150.53;6130733;23;934;-94
2022/07/04 06:24:27;;;;;;;;;;;;;;;16.78;63.52;100144.28;6128275;23;1149;-94
2022/07/04 06:26:53;;;;;;;;;;;;;;;16.78;63.59;100145.09;6128631;23;1244;-94
2022/07/04 06:29:19;;;;;;;;;;;;;;;16.78;63.56;100139.66;6128802;23;1300;-94
2022/07/04 06:31:46;;;;;;;;;;;;;;;16.79;63.54;100143.19;6128848;23;1145;-93
2022/07/04 06:36:56;;;;;;;;;;;;;;;16.76;63.53;100133.66;6128715;23;1308;-94
2022/07/04 06:39:23;;;;;;;;;;;;;;;16.77;63.42;100134.50;6130098;23;1901;-95
2022/07/04 06:41:49;;;;;;;;;;;;;;;16.77;63.36;100127.16;6128240;23;1291;-94
2022/07/04 06:44:15;;;;;;;;;;;;;;;16.76;63.52;100128.22;6128479;23;1171;-94
2022/07/04 06:46:44;;;;;;;;;;;;;;;16.77;63.43;100132.59;6128773;23;1360;-94
2022/07/04 06:49:10;;;;;;;;;;;;;;;16.76;63.50;100125.50;6128520;23;1327;-94
2022/07/04 06:51:36;;;;;;;;;;;;;;;16.76;63.51;100130.94;6128585;23;1295;-94
2022/07/04 06:54:03;;;;;;;;;;;;;;;16.76;63.42;100130.13;6128438;23;1310;-94
2022/07/04 06:56:29;;;;;;;;;;;;;;;16.75;63.53;100128.47;6128238;23;1194;-94
2022/07/04 06:58:56;;;;;;;;;;;;;;;16.76;63.52;100124.69;6128520;23;1252;-94
2022/07/04 07:01:22;;;;;;;;;;;;;;;16.76;63.55;100124.69;6129096;23;1935;-94
2022/07/04 07:03:48;;;;;;;;;;;;;;;16.74;63.49;100113.25;6128482;23;1059;-94
2022/07/04 07:06:15;;;;;;;;;;;;;;;16.75;63.54;100114.88;6129218;23;1168;-94
2022/07/04 07:08:41;;;;;;;;;;;;;;;16.74;63.59;100110.53;6128755;23;1273;-94
2022/07/04 07:11:14;;;;;;;;;;;;;;;16.72;63.47;100116.22;6129419;23;846;-94
2022/07/04 07:13:40;;;;;;;;;;;;;;;16.75;63.56;100110.25;6127886;23;1181;-94
2022/07/04 07:16:07;;;;;;;;;;;;;;;16.75;63.47;100102.09;6128228;23;1164;-94
2022/07/04 07:18:34;;;;;;;;;;;;;;;16.74;63.31;100097.75;6128636;23;1246;-95
2022/07/04 07:21:00;;;;;;;;;;;;;;;16.77;63.45;100094.50;6128101;23;1944;-94
2022/07/04 07:23:27;;;;;;;;;;;;;;;16.75;63.37;100091.22;6129206;23;1125;-95
2022/07/04 07:25:54;;;;;;;;;;;;;;;16.76;63.50;100078.47;6127791;23;1305;-96
2022/07/04 07:28:20;;;;;;;;;;;;;;;16.77;63.54;100086.34;6128032;23;1258;-94
2022/07/04 07:30:46;;;;;;;;;;;;;;;16.75;63.53;100077.63;6128219;23;1296;-94
2022/07/04 07:33:13;;;;;;;;;;;;;;;16.77;63.47;100066.50;6127952;23;1334;-95
2022/07/04 07:35:39;;;;;;;;;;;;;;;16.76;63.46;100067.59;6127832;23;1125;-94
2022/07/04 07:38:06;;;;;;;;;;;;;;;16.76;63.45;100062.13;6128044;23;1172;-95
2022/07/04 07:40:33;;;;;;;;;;;;;;;16.79;63.47;100067.03;6128112;23;1901;-95
2022/07/04 07:42:59;;;;;;;;;;;;;;;16.77;63.44;100061.88;6127624;23;1121;-94
2022/07/04 07:45:26;;;;;;;;;;;;;;;16.78;63.42;100055.34;6127944;23;1384;-96
2022/07/04 07:47:52;;;;;;;;;;;;;;;16.80;63.36;100063.25;6127698;23;1196;-93
2022/07/04 07:50:19;;;;;;;;;;;;;;;16.79;63.40;100053.44;6127838;23;1228;-95
2022/07/04 07:52:45;;;;;;;;;;;;;;;16.80;63.59;100055.91;6127707;23;1185;-94
2022/07/04 07:55:11;;;;;;;;;;;;;;;16.81;63.53;100054.00;6127722;23;1150;-94
2022/07/04 07:57:38;;;;;;;;;;;;;;;16.80;63.50;100050.47;6127905;23;1292;-95
2022/07/04 08:00:05;;;;;;;;;;;;;;;16.82;63.40;100052.88;6127665;23;1917;-94
2022/07/04 08:05:16;;;;;;;;;;;;;;;16.86;63.38;100050.47;6127728;23;1423;-95
2022/07/04 08:07:42;;;;;;;;;;;;;;;16.86;63.31;100045.03;6127727;23;1241;-94
2022/07/04 08:10:08;;;;;;;;;;;;;;;16.86;63.24;100034.97;6127502;23;1185;-93
2022/07/04 08:12:35;;;;;;;;;;;;;;;16.87;63.08;100035.75;6127350;23;1149;-94
2022/07/04 08:15:02;;;;;;;;;;;;;;;16.86;63.29;100034.16;6127572;23;1216;-94
2022/07/04 08:17:28;;;;;;;;;;;;;;;16.88;63.28;100029.22;6127947;23;1221;-94
2022/07/04 08:19:55;;;;;;;;;;;;;;;16.88;63.28;100023.78;6128335;23;1938;-94
2022/07/04 08:22:21;;;;;;;;;;;;;;;16.89;63.31;100030.88;6127803;23;1161;-94
2022/07/04 08:24:47;;;;;;;;;;;;;;;16.87;63.34;100031.13;6127073;23;1210;-93
2022/07/04 08:27:14;;;;;;;;;;;;;;;16.87;63.27;100031.13;6127462;23;1125;-94
2022/07/04 08:29:40;;;;;;;;;;;;;;;16.88;63.31;100021.88;6128317;23;1251;-93
2022/07/04 08:32:07;;;;;;;;;;;;;;;16.88;63.31;100027.31;6127702;23;1169;-93
2022/07/04 08:34:34;;;;;;;;;;;;;;;16.86;63.34;100024.06;6127321;23;1209;-93
2022/07/04 08:37:01;;;;;;;;;;;;;;;16.87;63.41;100033.03;6127363;23;1439;-93
2022/07/04 08:39:27;;;;;;;;;;;;;;;16.89;63.33;100033.59;6127699;23;1359;-94
2022/07/04 08:41:54;;;;;;;;;;;;;;;16.87;63.19;100022.16;6128443;23;1897;-92
2022/07/04 08:44:20;;;;;;;;;;;;;;;16.86;63.39;100021.34;6151970;23;1228;-93
2022/07/04 08:46:46;;;;;;;;;;;;;;;16.83;63.55;100019.19;6127723;23;1444;-92
2022/07/04 08:49:13;;;;;;;;;;;;;;;16.86;63.48;100024.06;6127266;23;1248;-93
2022/07/04 08:51:39;;;;;;;;;;;;;;;16.87;63.38;100020.25;6127576;23;1374;-93
2022/07/04 08:58:25;;;;;;;;;;;;;;;16.89;63.39;100025.44;6127475;23;1308;-93
2022/07/04 08:59:36;;;;;;;;;;;;;;;16.90;63.31;100024.34;6127053;23;1245;-95
2022/07/04 09:02:02;;;;;;;;;;;;;;;16.90;63.38;100024.34;6127012;23;1938;-94
2022/07/04 09:04:28;;;;;;;;;;;;;;;16.91;63.22;100021.34;6127267;23;1161;-94
2022/07/04 09:06:55;;;;;;;;;;;;;;;16.91;63.34;100020.50;6127381;23;1213;-95
2022/07/04 09:09:22;;;;;;;;;;;;;;;16.92;63.34;100014.00;6127901;23;1139;-93
2022/07/04 09:11:48;;;;;;;;;;;;;;;16.91;63.30;100007.75;6127442;23;1252;-93
2022/07/04 09:14:14;;;;;;;;;;;;;;;16.92;63.56;100016.72;6127308;23;1170;-95
2022/07/04 09:16:41;;;;;;;;;;;;;;;16.91;63.50;100005.03;6127209;23;1156;-93
2022/07/04 09:19:07;;;;;;;;;;;;;;;16.90;63.57;100018.91;6127482;23;1268;-94
2022/07/04 09:21:33;;;;;;;;;;;;;;;16.93;63.32;100018.34;6127525;23;1901;-93
2022/07/04 09:24:01;;;;;;;;;;;;;;;16.91;63.47;100018.63;6127040;23;1153;-96
2022/07/04 09:26:27;;;;;;;;;;;;;;;16.93;63.62;100018.34;6127141;23;1264;-93
2022/07/04 09:28:54;;;;;;;;;;;;;;;16.93;63.30;100011.00;6127632;23;1251;-93
2022/07/04 09:31:20;;;;;;;;;;;;;;;16.92;63.61;100011.28;6127802;23;1384;-93
2022/07/04 09:33:47;;;;;;;;;;;;;;;16.93;63.60;100010.19;6127526;23;1199;-95
2022/07/04 09:36:13;;;;;;;;;;;;;;;16.93;63.64;100000.13;6127255;23;1137;-92
2022/07/04 09:38:39;;;;;;;;;;;;;;;16.94;63.61;100022.69;6127001;23;1137;-95
2022/07/04 09:43:50;;;;;;;;;;;;;;;16.93;63.66;100013.72;6128391;23;1233;-93
2022/07/04 09:46:16;;;;;;;;;;;;;;;16.93;63.75;100004.75;6128374;23;1299;-93
2022/07/04 09:48:43;;;;;;;;;;;;;;;16.94;63.68;99992.75;6128414;23;1267;-93
2022/07/04 09:51:09;;;;;;;;;;;;;;;16.95;63.56;99999.84;6130167;23;1218;-93
2022/07/04 09:53:35;;;;;;;;;;;;;;;16.96;63.51;99988.69;6129112;23;1295;-94
2022/07/04 09:56:02;;;;;;;;;;;;;;;16.98;63.57;99993.88;6130141;23;1242;-93
2022/07/04 09:58:28;;;;;;;;;;;;;;;16.98;63.58;99988.44;6153672;23;1284;-93
2022/07/04 10:00:54;;;;;;;;;;;;;;;16.97;63.70;99979.47;6128424;23;1921;-93
2022/07/04 10:03:21;;;;;;;;;;;;;;;16.99;63.66;99988.13;6128324;23;1190;-94
2022/07/04 10:05:48;;;;;;;;;;;;;;;16.99;63.72;99984.59;6152896;23;1489;-93
2022/07/04 10:08:14;;;;;;;;;;;;;;;16.99;63.74;99979.97;6128866;23;1188;-94
2022/07/04 10:10:42;;;;;;;;;;;;;;;16.99;63.91;99979.97;6128400;23;1163;-93
2022/07/04 10:13:08;;;;;;;;;;;;;;;17.01;63.77;99985.16;6128080;23;1263;-93
2022/07/04 10:15:36;;;;;;;;;;;;;;;17.01;63.83;99975.09;6128747;23;1249;-94
2022/07/04 10:18:03;;;;;;;;;;;;;;;17.00;63.69;99975.34;6128878;23;1187;-93
2022/07/04 10:20:29;;;;;;;;;;;;;;;17.01;63.92;99975.09;6129583;23;1948;-94
2022/07/04 10:22:55;;;;;;;;;;;;;;;17.02;63.89;99970.44;6128831;23;1255;-94
2022/07/04 10:25:22;;;;;;;;;;;;;;;17.02;64.05;99962.28;6128770;23;1338;-94
2022/07/04 10:27:51;;;;;;;;;;;;;;;17.02;63.88;99963.09;6129297;23;1303;-94
2022/07/04 10:30:17;;;;;;;;;;;;;;;17.02;63.96;99963.09;6128970;23;1282;-94
2022/07/04 10:32:44;;;;;;;;;;;;;;;17.03;63.91;99953.06;6129974;23;1093;-95
2022/07/04 10:35:10;;;;;;;;;;;;;;;17.05;63.87;99950.84;6128833;23;1380;-95
2022/07/04 10:37:37;;;;;;;;;;;;;;;17.07;64.07;99956.84;6128921;23;1326;-93
2022/07/04 10:40:03;;;;;;;;;;;;;;;17.07;64.11;99958.75;6129129;23;1163;-94
2022/07/04 10:42:30;;;;;;;;;;;;;;;17.08;64.14;99960.38;6128536;23;1952;-94
2022/07/04 10:44:56;;;;;;;;;;;;;;;17.08;63.92;99954.94;6128681;23;1312;-95
2022/07/04 10:47:23;;;;;;;;;;;;;;;17.09;64.25;99951.09;6128743;23;1225;-95
2022/07/04 10:49:50;;;;;;;;;;;;;;;17.09;64.00;99943.78;6128594;23;1157;-93
2022/07/04 10:52:16;;;;;;;;;;;;;;;17.11;64.20;99952.47;6128267;23;1191;-95
2022/07/04 10:54:43;;;;;;;;;;;;;;;17.12;64.24;99945.09;6129491;23;1295;-95
2022/07/04 10:57:09;;;;;;;;;;;;;;;17.11;64.24;99951.66;6128744;23;1348;-95
2022/07/04 10:59:36;;;;;;;;;;;;;;;17.12;64.52;99943.22;6128785;23;1456;-95
2022/07/04 11:02:02;;;;;;;;;;;;;;;16.95;64.43;99918.25;6128871;23;2040;-94
2022/07/04 11:04:28;;;;;;;;;;;;;;;17.14;64.59;99940.22;6128477;23;1161;-96
2022/07/04 11:06:55;;;;;;;;;;;;;;;17.16;64.82;99946.19;6128920;23;1291;-94
2022/07/04 11:09:21;;;;;;;;;;;;;;;17.16;64.84;99935.31;6128637;23;1161;-95
2022/07/04 11:11:48;;;;;;;;;;;;;;;17.16;64.91;99947.00;6128834;23;1381;-96
2022/07/04 11:14:14;;;;;;;;;;;;;;;17.17;64.86;99932.31;6128625;23;1231;-95
2022/07/04 11:16:40;;;;;;;;;;;;;;;17.18;65.02;99946.75;6128101;23;1149;-93
2022/07/04 11:19:08;;;;;;;;;;;;;;;17.16;64.87;99933.41;6128493;23;1145;-94
2022/07/04 11:21:35;;;;;;;;;;;;;;;17.18;65.12;99939.41;6128367;23;1909;-96
2022/07/04 11:24:01;;;;;;;;;;;;;;;17.19;65.16;99946.44;6127915;23;1249;-93
2022/07/04 11:26:28;;;;;;;;;;;;;;;17.19;65.08;99943.72;6127661;23;1373;-94
2022/07/04 11:28:54;;;;;;;;;;;;;;;17.19;65.12;99937.47;6128047;23;1114;-94
2022/07/04 11:31:20;;;;;;;;;;;;;;;17.21;65.40;99943.47;6128133;23;1308;-93
2022/07/04 11:33:47;;;;;;;;;;;;;;;17.21;65.42;99932.59;6128197;23;1193;-93
2022/07/04 11:36:14;;;;;;;;;;;;;;;17.20;65.21;99933.66;6128201;23;1209;-94
2022/07/04 11:38:40;;;;;;;;;;;;;;;17.21;65.29;99924.41;6127997;23;1248;-94
2022/07/04 11:46:35;;;;;;;;;;;;;;;17.25;65.37;99937.19;6129958;23;1244;-95
2022/07/04 11:49:01;;;;;;;;;;;;;;;17.27;65.50;99941.53;6128778;23;1230;-96
2022/07/04 11:51:28;;;;;;;;;;;;;;;17.27;65.38;99942.34;6128133;23;1241;-94
2022/07/04 11:53:54;;;;;;;;;;;;;;;17.28;65.65;99946.69;6128258;23;1199;-94
2022/07/04 11:56:20;;;;;;;;;;;;;;;17.27;65.54;99952.44;6127491;23;1249;-93
2022/07/04 11:58:47;;;;;;;;;;;;;;;17.28;65.82;99954.03;6127890;23;1128;-93
2022/07/04 12:01:13;;;;;;;;;;;;;;;17.28;65.53;99954.03;6128219;23;1886;-94
2022/07/04 12:03:39;;;;;;;;;;;;;;;17.30;65.78;99936.34;6127421;23;1133;-94
2022/07/04 12:06:06;;;;;;;;;;;;;;;17.30;65.63;99947.25;6127399;23;1227;-94
2022/07/04 12:08:33;;;;;;;;;;;;;;;17.30;65.70;99944.50;6127905;23;1252;-94
2022/07/04 12:10:59;;;;;;;;;;;;;;;17.32;65.88;99936.88;6128951;23;962;-94
2022/07/04 12:13:25;;;;;;;;;;;;;;;17.31;65.73;99929.00;6127604;23;1248;-93
2022/07/04 12:15:52;;;;;;;;;;;;;;;17.30;65.76;99928.19;6127876;23;1260;-94
2022/07/04 12:18:18;;;;;;;;;;;;;;;17.32;65.91;99919.72;6128476;23;1243;-96
2022/07/04 12:20:45;;;;;;;;;;;;;;;17.33;66.01;99913.22;6128159;23;1905;-96
2022/07/04 12:23:11;;;;;;;;;;;;;;;17.34;65.86;99912.91;6128216;23;1165;-94
2022/07/04 12:25:38;;;;;;;;;;;;;;;17.34;65.83;99907.47;6127538;23;1375;-95
2022/07/04 12:28:04;;;;;;;;;;;;;;;17.35;65.77;99911.81;6127955;23;1254;-94
2022/07/04 12:30:31;;;;;;;;;;;;;;;17.36;65.92;99913.47;6128347;23;1193;-96
2022/07/04 12:32:57;;;;;;;;;;;;;;;17.39;66.01;99920.25;6127808;23;1300;-95
2022/07/04 12:35:23;;;;;;;;;;;;;;;17.39;66.07;99912.09;6127768;23;1236;-94
2022/07/04 12:37:50;;;;;;;;;;;;;;;17.41;66.17;99907.16;6127757;23;1204;-93
2022/07/04 12:40:16;;;;;;;;;;;;;;;17.42;66.05;99936.84;6127955;23;1192;-96
2022/07/04 12:42:42;;;;;;;;;;;;;;;17.43;66.34;99913.94;6127481;23;1943;-94
2022/07/04 12:45:09;;;;;;;;;;;;;;;17.43;66.21;99907.69;6127406;23;1280;-96
2022/07/04 12:47:35;;;;;;;;;;;;;;;17.43;66.37;99904.97;6127363;23;1314;-95
2022/07/04 12:50:02;;;;;;;;;;;;;;;17.43;66.38;99902.25;6128044;23;1267;-96
2022/07/04 12:52:28;;;;;;;;;;;;;;;17.44;66.35;99901.16;6127413;23;1216;-96
2022/07/04 12:54:55;;;;;;;;;;;;;;;17.43;66.46;99900.34;6127754;23;1201;-95
2022/07/04 12:57:21;;;;;;;;;;;;;;;17.43;66.38;99903.06;6127718;23;1164;-94
2022/07/04 12:59:47;;;;;;;;;;;;;;;17.45;66.44;99909.06;6127911;23;1180;-94
2022/07/04 13:02:14;;;;;;;;;;;;;;;17.47;66.43;99906.03;6127620;23;1945;-95
2022/07/04 13:04:41;;;;;;;;;;;;;;;17.48;66.35;99907.69;6128023;23;1157;-95
2022/07/04 13:07:07;;;;;;;;;;;;;;;17.48;66.52;99911.22;6127767;23;1133;-95
2022/07/04 13:09:33;;;;;;;;;;;;;;;17.50;66.52;99902.78;6127851;23;1186;-96